createdAt,value
2019-03-09T00:01:07.607Z,100539.69
2019-03-09T00:06:13.995Z,100532.99
2019-03-09T00:11:22.045Z,100520.66
2019-03-09T00:16:28.630Z,100504.64
2019-03-09T00:21:35.134Z,100487.81
2019-03-09T00:26:46.575Z,100486.45
2019-03-09T00:31:57.781Z,100487.30
2019-03-09T00:37:04.799Z,100484.91
2019-03-09T00:42:10.903Z,100486.74
2019-03-09T00:47:20.091Z,100464.03
2019-03-09T00:52:26.853Z,100456.79
2019-03-09T00:57:33.447Z,100457.89
2019-03-09T01:02:41.280Z,100469.83
2019-03-09T01:07:47.926Z,100462.50
2019-03-09T01:12:53.766Z,100444.27
2019-03-09T01:17:59.623Z,100432.86
2019-03-09T01:23:07.786Z,100427.73
2019-03-09T01:28:15.224Z,100418.58
2019-03-09T01:33:23.006Z,100416.81
2019-03-09T01:38:28.897Z,100384.06
2019-03-09T01:43:34.922Z,100380.61
2019-03-09T01:48:41.388Z,100364.91
2019-03-09T01:53:47.330Z,100363.98
2019-03-09T01:58:53.312Z,100356.04
2019-03-09T02:04:00.200Z,100351.59
2019-03-09T02:09:08.025Z,100340.66
2019-03-09T02:14:16.004Z,100320.68
2019-03-09T02:19:26.003Z,100315.82
2019-03-09T02:24:34.534Z,100305.13
2019-03-09T02:29:44.612Z,100284.66
2019-03-09T02:34:51.482Z,100280.55
2019-03-09T02:40:00.324Z,100271.10
2019-03-09T02:45:20.980Z,100268.06
2019-03-09T02:50:29.742Z,100267.03
2019-03-09T02:55:36.875Z,100252.56
2019-03-09T03:00:46.022Z,100226.86
2019-03-09T03:05:54.327Z,100226.95
2019-03-09T03:11:01.266Z,100212.26
2019-03-09T03:16:07.491Z,100188.31
2019-03-09T03:21:14.222Z,100179.00
2019-03-09T03:26:20.940Z,100154.45
2019-03-09T03:31:28.032Z,100144.00
2019-03-09T03:36:34.189Z,100139.73
2019-03-09T03:41:40.713Z,100127.80
2019-03-09T03:46:47.138Z,100113.08
2019-03-09T03:51:53.309Z,100102.73
2019-03-09T03:56:59.934Z,100091.46
2019-03-09T04:02:07.069Z,100074.41
2019-03-09T04:07:13.794Z,100070.19
2019-03-09T04:12:20.786Z,100058.55
2019-03-09T04:17:27.110Z,100037.72
2019-03-09T04:22:38.102Z,100031.03
2019-03-09T04:27:44.506Z,100028.13
2019-03-09T04:32:50.705Z,100005.05
2019-03-09T04:37:58.526Z,99999.41
2019-03-09T04:43:04.755Z,99984.52
2019-03-09T04:48:11.569Z,99967.55
2019-03-09T04:53:17.763Z,99943.96
2019-03-09T04:58:23.921Z,99926.73
2019-03-09T05:03:29.546Z,99929.31
2019-03-09T05:08:41.011Z,99911.51
2019-03-09T05:13:46.565Z,99884.98
2019-03-09T05:18:52.304Z,99883.08
2019-03-09T05:23:57.921Z,99874.90
2019-03-09T05:29:04.278Z,99854.97
2019-03-09T05:34:09.841Z,99837.75
2019-03-09T05:39:15.751Z,99835.17
2019-03-09T05:44:21.379Z,99821.52
2019-03-09T05:49:27.081Z,99809.14
2019-03-09T05:54:33.106Z,99797.72
2019-03-09T05:59:39.557Z,99810.72
2019-03-09T06:04:45.092Z,99799.54
2019-03-09T06:09:51.032Z,99798.14
2019-03-09T06:14:56.657Z,99778.18
2019-03-09T06:20:02.650Z,99757.16
2019-03-09T06:25:08.379Z,99762.38
2019-03-09T06:30:14.869Z,99742.16
2019-03-09T06:35:24.653Z,99759.80
2019-03-09T06:40:30.380Z,99748.53
2019-03-09T06:45:36.992Z,99738.02
2019-03-09T06:50:42.977Z,99722.06
2019-03-09T06:55:50.339Z,99756.02
2019-03-09T07:00:58.315Z,99725.77
2019-03-09T07:06:05.888Z,99705.63
2019-03-09T07:11:12.004Z,99718.23
2019-03-09T07:16:17.901Z,99701.42
2019-03-09T07:21:25.055Z,99714.38
2019-03-09T07:26:30.954Z,99699.53
2019-03-09T07:31:37.738Z,99707.47
2019-03-09T07:36:44.921Z,99658.22
2019-03-09T07:41:51.794Z,99727.31
2019-03-09T07:46:57.875Z,99701.52
2019-03-09T07:52:07.239Z,99676.27
2019-03-09T07:57:14.590Z,99684.44
2019-03-09T08:02:21.239Z,99710.45
2019-03-09T08:07:28.776Z,99716.14
2019-03-09T08:12:35.033Z,99703.45
2019-03-09T08:17:42.505Z,99736.48
2019-03-09T08:22:49.966Z,99698.64
2019-03-09T08:27:57.134Z,99735.88
2019-03-09T08:33:05.496Z,99750.69
2019-03-09T08:38:11.885Z,99755.66
2019-03-09T08:43:17.741Z,99765.05
2019-03-09T08:48:25.480Z,99818.55
2019-03-09T08:53:32.628Z,99802.25
2019-03-09T08:58:39.412Z,99771.87
2019-03-09T09:03:45.627Z,99774.02
2019-03-09T09:08:53.129Z,99767.00
2019-03-09T09:14:00.913Z,99819.28
2019-03-09T09:19:07.170Z,99770.03
2019-03-09T09:24:14.326Z,99755.55
2019-03-09T09:29:20.710Z,99787.59
2019-03-09T09:34:27.147Z,99816.00
2019-03-09T09:39:33.349Z,99812.04
2019-03-09T09:44:39.854Z,99810.41
2019-03-09T09:49:48.245Z,99850.25
2019-03-09T09:54:56.387Z,99819.39
2019-03-09T10:00:02.962Z,99817.70
2019-03-09T10:05:11.651Z,99819.96
2019-03-09T10:10:22.585Z,99836.16
2019-03-09T10:15:30.734Z,99830.88
2019-03-09T10:20:38.726Z,99841.41
2019-03-09T10:25:45.555Z,99827.48
2019-03-09T10:30:51.859Z,99882.40
2019-03-09T10:35:59.368Z,99855.93
2019-03-09T10:41:06.253Z,99884.64
2019-03-09T10:46:12.255Z,99875.61
2019-03-09T10:51:21.158Z,99899.16
2019-03-09T10:56:27.603Z,99914.61
2019-03-09T11:01:33.364Z,99888.48
2019-03-09T11:06:39.740Z,99883.09
2019-03-09T11:11:46.880Z,99883.88
2019-03-09T11:16:53.082Z,99877.09
2019-03-09T11:21:58.982Z,99871.05
2019-03-09T11:27:05.765Z,99921.81
2019-03-09T11:32:13.147Z,99885.30
2019-03-09T11:37:19.623Z,99864.70
2019-03-09T11:42:27.200Z,99853.94
2019-03-09T11:47:32.987Z,99868.14
2019-03-09T11:52:38.729Z,99862.78
2019-03-09T11:57:44.591Z,99889.00
2019-03-09T12:02:50.882Z,99870.73
2019-03-09T12:07:58.096Z,99896.08
2019-03-09T12:13:04.136Z,99850.84
2019-03-09T12:18:11.677Z,99859.14
2019-03-09T12:23:22.649Z,99880.94
2019-03-09T12:28:28.414Z,99878.91
2019-03-09T12:33:35.646Z,99866.94
2019-03-09T12:38:42.665Z,99869.53
2019-03-09T12:43:48.602Z,99885.42
2019-03-09T12:48:54.506Z,99869.16
2019-03-09T12:54:01.995Z,99880.70
2019-03-09T12:59:08.090Z,99854.91
2019-03-09T13:04:14.472Z,99852.09
2019-03-09T13:09:20.269Z,99920.17
2019-03-09T13:14:27.002Z,99822.15
2019-03-09T13:19:33.032Z,99836.13
2019-03-09T13:24:39.161Z,99823.76
2019-03-09T13:29:45.921Z,99807.34
2019-03-09T13:34:53.047Z,99826.02
2019-03-09T13:39:58.769Z,99793.76
2019-03-09T13:45:08.453Z,99808.23
2019-03-09T13:50:16.782Z,99764.00
2019-03-09T13:55:23.377Z,99812.45
2019-03-09T14:00:36.926Z,99791.30
2019-03-09T14:05:36.611Z,99816.00
2019-03-09T14:10:43.471Z,99776.27
2019-03-09T14:15:51.531Z,99742.92
2019-03-09T14:20:58.285Z,99731.01
2019-03-09T14:26:04.023Z,99713.00
2019-03-09T14:31:10.317Z,99695.53
2019-03-09T14:36:17.181Z,99755.33
2019-03-09T14:41:24.825Z,99713.68
2019-03-09T14:46:30.578Z,99684.62
2019-03-09T14:51:37.034Z,99669.30
2019-03-09T14:56:43.438Z,99656.20
2019-03-09T15:01:49.118Z,99650.33
2019-03-09T15:06:55.253Z,99655.98
2019-03-09T15:12:01.146Z,99696.94
2019-03-09T15:17:06.716Z,99662.22
2019-03-09T15:22:13.043Z,99650.93
2019-03-09T15:27:19.415Z,99638.87
2019-03-09T15:32:25.937Z,99635.83
2019-03-09T15:37:32.518Z,99632.23
2019-03-09T15:42:38.537Z,99638.35
2019-03-09T15:47:44.822Z,99615.56
2019-03-09T15:52:54.075Z,99631.03
2019-03-09T15:58:01.125Z,99624.58
2019-03-09T16:03:08.788Z,99658.17
2019-03-09T16:08:14.467Z,99661.27
2019-03-09T16:13:20.313Z,99693.47
2019-03-09T16:18:28.172Z,99724.91
2019-03-09T16:23:35.797Z,99788.50
2019-03-09T16:28:41.697Z,99731.48
2019-03-09T16:33:48.755Z,99623.53
2019-03-09T16:38:54.856Z,99596.11
2019-03-09T16:44:00.633Z,99583.22
2019-03-09T16:49:06.417Z,99527.34
2019-03-09T16:54:15.179Z,99490.58
2019-03-09T16:59:20.899Z,99497.81
2019-03-09T17:04:27.854Z,99467.16
2019-03-09T17:09:33.853Z,99455.00
2019-03-09T17:14:40.407Z,99471.84
2019-03-09T17:19:48.650Z,99471.48
2019-03-09T17:24:55.742Z,99447.66
2019-03-09T17:30:03.104Z,99441.89
2019-03-09T17:35:12.204Z,99452.39
2019-03-09T17:40:23.204Z,99485.36
2019-03-09T17:45:28.984Z,99518.64
2019-03-09T17:50:37.307Z,99526.58
2019-03-09T17:55:46.711Z,99544.83
2019-03-09T18:00:58.411Z,99540.34
2019-03-09T18:06:04.436Z,99552.22
2019-03-09T18:11:12.680Z,99537.34
2019-03-09T18:16:20.447Z,99532.52
2019-03-09T18:21:27.836Z,99536.73
2019-03-09T18:26:35.015Z,99518.04
2019-03-09T18:31:43.723Z,99506.72
2019-03-09T18:36:51.774Z,99454.02
2019-03-09T18:42:00.558Z,99441.52
2019-03-09T18:47:06.844Z,99465.13
2019-03-09T18:52:19.007Z,99448.44
2019-03-09T18:57:30.563Z,99437.05
2019-03-09T19:02:37.135Z,99447.35
2019-03-09T19:07:49.541Z,99448.03
2019-03-09T19:12:57.594Z,99458.38
2019-03-09T19:18:05.361Z,99451.39
2019-03-09T19:23:11.339Z,99466.38
2019-03-09T19:28:20.087Z,99461.13
2019-03-09T19:33:26.011Z,99478.02
2019-03-09T19:38:35.982Z,99470.59
2019-03-09T19:43:42.187Z,99486.33
2019-03-09T19:48:47.871Z,99502.77
2019-03-09T19:53:55.538Z,99459.91
2019-03-09T19:59:03.398Z,99502.92
2019-03-09T20:04:08.946Z,99484.13
2019-03-09T20:09:15.149Z,99551.13
2019-03-09T20:14:21.368Z,99527.94
2019-03-09T20:19:27.198Z,99514.30
2019-03-09T20:24:36.224Z,99528.03
2019-03-09T20:29:42.198Z,99542.91
2019-03-09T20:34:47.850Z,99545.92
2019-03-09T20:39:56.715Z,99625.30
2019-03-09T20:45:02.677Z,99646.58
2019-03-09T20:50:13.606Z,99668.31
2019-03-09T20:55:20.516Z,99696.17
2019-03-09T21:00:27.828Z,99693.91
2019-03-09T21:05:36.729Z,99756.80
2019-03-09T21:10:42.004Z,99797.75
2019-03-09T21:15:48.544Z,99819.20
2019-03-09T21:20:54.333Z,99862.78
2019-03-09T21:26:01.012Z,99891.91
2019-03-09T21:31:07.530Z,99923.17
2019-03-09T21:36:16.662Z,99953.34
2019-03-09T21:41:23.682Z,99975.22
2019-03-09T21:46:31.713Z,99985.69
2019-03-09T21:51:37.455Z,100012.33
2019-03-09T21:56:44.667Z,100047.00
2019-03-09T22:01:50.632Z,100048.96
2019-03-09T22:06:56.887Z,100065.49
2019-03-09T22:12:03.270Z,100053.51
2019-03-09T22:17:09.042Z,100090.41
2019-03-09T22:22:15.190Z,100088.91
2019-03-09T22:27:21.235Z,100090.63
2019-03-09T22:32:27.799Z,100130.17
2019-03-09T22:37:36.589Z,100124.38
2019-03-09T22:42:43.091Z,100123.07
2019-03-09T22:47:54.937Z,100111.58
2019-03-09T22:53:02.644Z,100101.89
2019-03-09T22:58:08.713Z,100107.00
2019-03-09T23:03:14.479Z,100141.86
2019-03-09T23:08:21.029Z,100129.80
2019-03-09T23:13:27.066Z,100128.23
2019-03-09T23:18:34.112Z,100143.36
2019-03-09T23:23:41.686Z,100141.08
2019-03-09T23:28:52.235Z,100161.76
2019-03-09T23:40:34.672Z,100157.19
2019-03-09T23:45:41.767Z,100165.84
2019-03-09T23:50:47.681Z,100184.61
2019-03-09T23:55:53.920Z,100193.01
